sensor_id;sensor_type;location;lat;lon;timestamp;P1;durP1;ratioP1;P2;durP2;ratioP2
45848;SDS011;31567;54.600;9.842;2023-08-07T00:03:27;1.33;;;1.10;;
45848;SDS011;31567;54.600;9.842;2023-08-07T00:07:06;3.67;;;1.75;;
45848;SDS011;31567;54.600;9.842;2023-08-07T00:10:46;2.83;;;1.48;;
45848;SDS011;31567;54.600;9.842;2023-08-07T00:14:27;1.30;;;1.20;;
45848;SDS011;31567;54.600;9.842;2023-08-07T00:18:06;2.90;;;1.27;;
45848;SDS011;31567;54.600;9.842;2023-08-07T00:21:46;2.38;;;1.33;;
45848;SDS011;31567;54.600;9.842;2023-08-07T00:25:25;3.60;;;1.75;;
45848;SDS011;31567;54.600;9.842;2023-08-07T00:29:06;3.03;;;1.85;;
45848;SDS011;31567;54.600;9.842;2023-08-07T00:32:45;2.75;;;1.83;;
45848;SDS011;31567;54.600;9.842;2023-08-07T00:36:25;2.35;;;1.52;;
45848;SDS011;31567;54.600;9.842;2023-08-07T00:40:07;2.65;;;1.63;;
45848;SDS011;31567;54.600;9.842;2023-08-07T00:43:47;2.22;;;1.83;;
45848;SDS011;31567;54.600;9.842;2023-08-07T00:47:27;2.63;;;2.00;;
45848;SDS011;31567;54.600;9.842;2023-08-07T00:51:07;1.83;;;1.65;;
45848;SDS011;31567;54.600;9.842;2023-08-07T00:54:47;2.33;;;1.95;;
45848;SDS011;31567;54.600;9.842;2023-08-07T00:58:27;1.70;;;1.60;;
45848;SDS011;31567;54.600;9.842;2023-08-07T01:02:06;2.08;;;1.85;;
45848;SDS011;31567;54.600;9.842;2023-08-07T01:05:46;2.55;;;2.35;;
45848;SDS011;31567;54.600;9.842;2023-08-07T01:09:26;6.13;;;2.08;;
45848;SDS011;31567;54.600;9.842;2023-08-07T01:13:12;6.90;;;2.42;;
45848;SDS011;31567;54.600;9.842;2023-08-07T01:17:07;6.78;;;2.58;;
45848;SDS011;31567;54.600;9.842;2023-08-07T01:20:50;4.90;;;2.60;;
45848;SDS011;31567;54.600;9.842;2023-08-07T01:24:30;5.30;;;2.72;;
45848;SDS011;31567;54.600;9.842;2023-08-07T01:28:21;3.08;;;2.83;;
45848;SDS011;31567;54.600;9.842;2023-08-07T01:32:12;3.25;;;2.67;;
45848;SDS011;31567;54.600;9.842;2023-08-07T01:35:55;3.65;;;3.00;;
45848;SDS011;31567;54.600;9.842;2023-08-07T01:39:36;5.45;;;2.80;;
45848;SDS011;31567;54.600;9.842;2023-08-07T01:43:17;4.45;;;2.67;;
45848;SDS011;31567;54.600;9.842;2023-08-07T01:46:58;6.70;;;3.00;;
45848;SDS011;31567;54.600;9.842;2023-08-07T01:50:38;5.72;;;2.67;;
45848;SDS011;31567;54.600;9.842;2023-08-07T01:54:18;3.83;;;2.70;;
45848;SDS011;31567;54.600;9.842;2023-08-07T01:57:57;4.20;;;3.20;;
45848;SDS011;31567;54.600;9.842;2023-08-07T02:01:37;5.05;;;3.25;;
45848;SDS011;31567;54.600;9.842;2023-08-07T02:05:16;4.97;;;2.75;;
45848;SDS011;31567;54.600;9.842;2023-08-07T02:08:56;3.03;;;2.60;;
45848;SDS011;31567;54.600;9.842;2023-08-07T02:12:36;3.40;;;2.78;;
45848;SDS011;31567;54.600;9.842;2023-08-07T02:16:17;5.50;;;2.80;;
45848;SDS011;31567;54.600;9.842;2023-08-07T02:19:56;3.72;;;2.50;;
45848;SDS011;31567;54.600;9.842;2023-08-07T02:23:36;5.35;;;2.88;;
45848;SDS011;31567;54.600;9.842;2023-08-07T02:27:16;5.20;;;2.20;;
45848;SDS011;31567;54.600;9.842;2023-08-07T02:30:56;3.85;;;2.75;;
45848;SDS011;31567;54.600;9.842;2023-08-07T02:34:35;4.55;;;2.45;;
45848;SDS011;31567;54.600;9.842;2023-08-07T02:38:15;3.05;;;2.08;;
45848;SDS011;31567;54.600;9.842;2023-08-07T02:41:54;4.45;;;2.35;;
45848;SDS011;31567;54.600;9.842;2023-08-07T02:45:34;3.15;;;2.03;;
45848;SDS011;31567;54.600;9.842;2023-08-07T02:49:14;2.25;;;2.05;;
45848;SDS011;31567;54.600;9.842;2023-08-07T02:52:53;4.28;;;2.20;;
45848;SDS011;31567;54.600;9.842;2023-08-07T02:56:33;3.13;;;2.00;;
45848;SDS011;31567;54.600;9.842;2023-08-07T03:00:12;4.68;;;1.60;;
45848;SDS011;31567;54.600;9.842;2023-08-07T03:03:52;5.18;;;2.08;;
45848;SDS011;31567;54.600;9.842;2023-08-07T03:07:32;4.85;;;2.33;;
45848;SDS011;31567;54.600;9.842;2023-08-07T03:11:11;6.22;;;2.70;;
45848;SDS011;31567;54.600;9.842;2023-08-07T03:14:51;4.63;;;1.88;;
45848;SDS011;31567;54.600;9.842;2023-08-07T03:18:31;3.95;;;2.08;;
45848;SDS011;31567;54.600;9.842;2023-08-07T03:22:11;7.60;;;2.42;;
45848;SDS011;31567;54.600;9.842;2023-08-07T03:25:50;5.43;;;1.92;;
45848;SDS011;31567;54.600;9.842;2023-08-07T03:29:40;5.60;;;1.85;;
45848;SDS011;31567;54.600;9.842;2023-08-07T03:33:19;3.38;;;1.77;;
45848;SDS011;31567;54.600;9.842;2023-08-07T03:36:59;3.80;;;1.85;;
45848;SDS011;31567;54.600;9.842;2023-08-07T03:40:38;4.60;;;2.00;;
45848;SDS011;31567;54.600;9.842;2023-08-07T03:44:18;4.07;;;1.92;;
45848;SDS011;31567;54.600;9.842;2023-08-07T03:47:57;6.18;;;2.45;;
45848;SDS011;31567;54.600;9.842;2023-08-07T03:51:37;4.70;;;1.85;;
45848;SDS011;31567;54.600;9.842;2023-08-07T03:55:16;4.47;;;2.05;;
45848;SDS011;31567;54.600;9.842;2023-08-07T03:58:57;3.88;;;2.10;;
45848;SDS011;31567;54.600;9.842;2023-08-07T04:02:36;7.47;;;2.45;;
45848;SDS011;31567;54.600;9.842;2023-08-07T04:06:16;3.95;;;2.05;;
45848;SDS011;31567;54.600;9.842;2023-08-07T04:09:55;5.13;;;2.22;;
45848;SDS011;31567;54.600;9.842;2023-08-07T04:13:35;6.97;;;2.20;;
45848;SDS011;31567;54.600;9.842;2023-08-07T04:17:14;3.67;;;2.00;;
45848;SDS011;31567;54.600;9.842;2023-08-07T04:20:55;4.15;;;1.88;;
45848;SDS011;31567;54.600;9.842;2023-08-07T04:24:35;8.52;;;2.92;;
45848;SDS011;31567;54.600;9.842;2023-08-07T04:28:15;8.88;;;2.42;;
45848;SDS011;31567;54.600;9.842;2023-08-07T04:31:55;4.85;;;1.80;;
45848;SDS011;31567;54.600;9.842;2023-08-07T04:35:34;8.18;;;2.38;;
45848;SDS011;31567;54.600;9.842;2023-08-07T04:39:14;8.70;;;2.65;;
45848;SDS011;31567;54.600;9.842;2023-08-07T04:42:54;6.30;;;2.05;;
45848;SDS011;31567;54.600;9.842;2023-08-07T04:46:33;7.93;;;2.40;;
45848;SDS011;31567;54.600;9.842;2023-08-07T04:50:13;10.07;;;3.10;;
45848;SDS011;31567;54.600;9.842;2023-08-07T04:53:52;8.60;;;2.38;;
45848;SDS011;31567;54.600;9.842;2023-08-07T04:57:32;7.60;;;2.47;;
45848;SDS011;31567;54.600;9.842;2023-08-07T05:01:11;10.23;;;2.42;;
45848;SDS011;31567;54.600;9.842;2023-08-07T05:04:51;8.63;;;2.42;;
45848;SDS011;31567;54.600;9.842;2023-08-07T05:08:30;13.30;;;2.47;;
45848;SDS011;31567;54.600;9.842;2023-08-07T05:12:10;6.45;;;2.65;;
45848;SDS011;31567;54.600;9.842;2023-08-07T05:15:50;6.95;;;2.10;;
45848;SDS011;31567;54.600;9.842;2023-08-07T05:19:29;8.20;;;2.70;;
45848;SDS011;31567;54.600;9.842;2023-08-07T05:23:09;8.43;;;2.40;;
45848;SDS011;31567;54.600;9.842;2023-08-07T05:26:49;8.68;;;2.58;;
45848;SDS011;31567;54.600;9.842;2023-08-07T05:30:29;13.55;;;2.55;;
45848;SDS011;31567;54.600;9.842;2023-08-07T05:34:08;12.25;;;2.50;;
45848;SDS011;31567;54.600;9.842;2023-08-07T05:37:48;7.35;;;2.90;;
45848;SDS011;31567;54.600;9.842;2023-08-07T05:41:27;8.13;;;2.38;;
45848;SDS011;31567;54.600;9.842;2023-08-07T05:45:07;13.10;;;3.05;;
45848;SDS011;31567;54.600;9.842;2023-08-07T05:48:49;14.55;;;3.10;;
45848;SDS011;31567;54.600;9.842;2023-08-07T05:52:28;10.38;;;2.78;;
45848;SDS011;31567;54.600;9.842;2023-08-07T05:56:08;10.50;;;2.30;;
45848;SDS011;31567;54.600;9.842;2023-08-07T05:59:47;12.18;;;2.63;;
45848;SDS011;31567;54.600;9.842;2023-08-07T06:03:27;12.23;;;2.50;;
45848;SDS011;31567;54.600;9.842;2023-08-07T06:07:07;11.85;;;3.00;;
45848;SDS011;31567;54.600;9.842;2023-08-07T06:10:47;14.20;;;3.22;;
45848;SDS011;31567;54.600;9.842;2023-08-07T06:14:26;17.33;;;3.00;;
45848;SDS011;31567;54.600;9.842;2023-08-07T06:18:06;9.45;;;3.60;;
45848;SDS011;31567;54.600;9.842;2023-08-07T06:21:45;12.45;;;2.78;;
45848;SDS011;31567;54.600;9.842;2023-08-07T06:25:25;13.88;;;3.45;;
45848;SDS011;31567;54.600;9.842;2023-08-07T06:29:04;12.68;;;2.70;;
45848;SDS011;31567;54.600;9.842;2023-08-07T06:32:44;14.60;;;3.13;;
45848;SDS011;31567;54.600;9.842;2023-08-07T06:36:23;11.48;;;2.90;;
45848;SDS011;31567;54.600;9.842;2023-08-07T06:40:03;17.23;;;3.50;;
45848;SDS011;31567;54.600;9.842;2023-08-07T06:43:44;10.00;;;2.35;;
45848;SDS011;31567;54.600;9.842;2023-08-07T06:47:23;10.57;;;2.83;;
45848;SDS011;31567;54.600;9.842;2023-08-07T06:51:03;10.60;;;3.25;;
45848;SDS011;31567;54.600;9.842;2023-08-07T06:54:42;8.38;;;2.35;;
45848;SDS011;31567;54.600;9.842;2023-08-07T06:58:22;11.20;;;3.13;;
45848;SDS011;31567;54.600;9.842;2023-08-07T07:02:01;11.48;;;2.75;;
45848;SDS011;31567;54.600;9.842;2023-08-07T07:05:41;15.05;;;3.10;;
45848;SDS011;31567;54.600;9.842;2023-08-07T07:09:22;15.82;;;3.78;;
45848;SDS011;31567;54.600;9.842;2023-08-07T07:13:01;11.63;;;2.95;;
45848;SDS011;31567;54.600;9.842;2023-08-07T07:16:41;10.75;;;3.10;;
45848;SDS011;31567;54.600;9.842;2023-08-07T07:20:21;11.43;;;2.55;;
45848;SDS011;31567;54.600;9.842;2023-08-07T07:24:01;12.93;;;3.88;;
45848;SDS011;31567;54.600;9.842;2023-08-07T07:27:41;10.90;;;3.08;;
45848;SDS011;31567;54.600;9.842;2023-08-07T07:31:21;11.18;;;2.58;;
45848;SDS011;31567;54.600;9.842;2023-08-07T07:35:01;8.07;;;2.63;;
45848;SDS011;31567;54.600;9.842;2023-08-07T07:38:40;14.82;;;3.50;;
45848;SDS011;31567;54.600;9.842;2023-08-07T07:42:20;12.52;;;3.10;;
45848;SDS011;31567;54.600;9.842;2023-08-07T07:45:59;15.18;;;2.83;;
45848;SDS011;31567;54.600;9.842;2023-08-07T07:49:39;13.70;;;3.17;;
45848;SDS011;31567;54.600;9.842;2023-08-07T07:53:28;11.65;;;2.63;;
45848;SDS011;31567;54.600;9.842;2023-08-07T07:57:08;11.57;;;2.92;;
45848;SDS011;31567;54.600;9.842;2023-08-07T08:00:48;12.02;;;3.35;;
45848;SDS011;31567;54.600;9.842;2023-08-07T08:04:28;18.77;;;3.83;;
45848;SDS011;31567;54.600;9.842;2023-08-07T08:08:07;14.18;;;3.20;;
45848;SDS011;31567;54.600;9.842;2023-08-07T08:11:47;15.13;;;3.53;;
45848;SDS011;31567;54.600;9.842;2023-08-07T08:15:27;11.43;;;3.60;;
45848;SDS011;31567;54.600;9.842;2023-08-07T08:19:06;16.23;;;3.20;;
45848;SDS011;31567;54.600;9.842;2023-08-07T08:22:48;14.52;;;3.20;;
45848;SDS011;31567;54.600;9.842;2023-08-07T08:26:28;16.98;;;3.00;;
45848;SDS011;31567;54.600;9.842;2023-08-07T08:30:07;10.48;;;3.35;;
45848;SDS011;31567;54.600;9.842;2023-08-07T08:33:48;10.77;;;3.58;;
45848;SDS011;31567;54.600;9.842;2023-08-07T08:37:27;10.95;;;2.40;;
45848;SDS011;31567;54.600;9.842;2023-08-07T08:41:08;14.55;;;3.55;;
45848;SDS011;31567;54.600;9.842;2023-08-07T08:44:51;11.95;;;2.90;;
45848;SDS011;31567;54.600;9.842;2023-08-07T08:48:33;11.15;;;2.75;;
45848;SDS011;31567;54.600;9.842;2023-08-07T08:52:15;13.23;;;3.35;;
45848;SDS011;31567;54.600;9.842;2023-08-07T08:55:55;7.80;;;2.50;;
45848;SDS011;31567;54.600;9.842;2023-08-07T08:59:35;12.60;;;3.00;;
45848;SDS011;31567;54.600;9.842;2023-08-07T09:03:15;13.30;;;3.08;;
45848;SDS011;31567;54.600;9.842;2023-08-07T09:06:56;9.77;;;2.78;;
45848;SDS011;31567;54.600;9.842;2023-08-07T09:10:36;14.43;;;2.80;;
45848;SDS011;31567;54.600;9.842;2023-08-07T09:14:17;8.38;;;2.22;;
45848;SDS011;31567;54.600;9.842;2023-08-07T09:18:00;11.23;;;3.30;;
45848;SDS011;31567;54.600;9.842;2023-08-07T09:21:44;15.90;;;2.42;;
45848;SDS011;31567;54.600;9.842;2023-08-07T09:25:27;11.95;;;3.38;;
45848;SDS011;31567;54.600;9.842;2023-08-07T09:29:08;12.05;;;2.65;;
45848;SDS011;31567;54.600;9.842;2023-08-07T09:32:48;9.93;;;2.92;;
45848;SDS011;31567;54.600;9.842;2023-08-07T09:36:29;22.50;;;3.45;;
45848;SDS011;31567;54.600;9.842;2023-08-07T09:40:10;12.45;;;3.20;;
45848;SDS011;31567;54.600;9.842;2023-08-07T09:43:51;11.63;;;3.50;;
45848;SDS011;31567;54.600;9.842;2023-08-07T09:47:31;10.48;;;2.47;;
45848;SDS011;31567;54.600;9.842;2023-08-07T09:51:10;13.07;;;2.60;;
45848;SDS011;31567;54.600;9.842;2023-08-07T09:54:50;11.32;;;3.00;;
45848;SDS011;31567;54.600;9.842;2023-08-07T09:58:29;12.27;;;2.50;;
45848;SDS011;31567;54.600;9.842;2023-08-07T10:02:09;9.45;;;2.40;;
45848;SDS011;31567;54.600;9.842;2023-08-07T10:05:50;10.68;;;3.17;;
45848;SDS011;31567;54.600;9.842;2023-08-07T10:09:30;16.63;;;2.80;;
45848;SDS011;31567;54.600;9.842;2023-08-07T10:13:12;12.57;;;2.15;;
45848;SDS011;31567;54.600;9.842;2023-08-07T10:16:52;6.97;;;1.98;;
45848;SDS011;31567;54.600;9.842;2023-08-07T10:20:33;13.20;;;2.55;;
45848;SDS011;31567;54.600;9.842;2023-08-07T10:24:13;10.68;;;2.30;;
45848;SDS011;31567;54.600;9.842;2023-08-07T10:27:55;10.70;;;2.45;;
45848;SDS011;31567;54.600;9.842;2023-08-07T10:31:36;9.23;;;2.10;;
45848;SDS011;31567;54.600;9.842;2023-08-07T10:35:25;13.85;;;1.80;;
45848;SDS011;31567;54.600;9.842;2023-08-07T10:39:09;10.38;;;2.50;;
45848;SDS011;31567;54.600;9.842;2023-08-07T10:43:12;10.60;;;2.78;;
45848;SDS011;31567;54.600;9.842;2023-08-07T10:46:52;7.93;;;1.77;;
45848;SDS011;31567;54.600;9.842;2023-08-07T10:50:34;9.65;;;2.72;;
45848;SDS011;31567;54.600;9.842;2023-08-07T10:54:14;13.40;;;2.72;;
45848;SDS011;31567;54.600;9.842;2023-08-07T10:57:55;11.95;;;1.98;;
45848;SDS011;31567;54.600;9.842;2023-08-07T11:05:19;15.93;;;3.10;;
45848;SDS011;31567;54.600;9.842;2023-08-07T11:08:59;12.95;;;3.60;;
45848;SDS011;31567;54.600;9.842;2023-08-07T11:12:40;16.35;;;3.45;;
45848;SDS011;31567;54.600;9.842;2023-08-07T11:16:20;12.88;;;3.03;;
45848;SDS011;31567;54.600;9.842;2023-08-07T11:19:59;11.40;;;2.65;;
45848;SDS011;31567;54.600;9.842;2023-08-07T11:23:40;12.30;;;2.30;;
45848;SDS011;31567;54.600;9.842;2023-08-07T11:27:23;10.00;;;2.85;;
45848;SDS011;31567;54.600;9.842;2023-08-07T11:31:03;11.73;;;3.15;;
45848;SDS011;31567;54.600;9.842;2023-08-07T11:34:48;14.75;;;2.60;;
45848;SDS011;31567;54.600;9.842;2023-08-07T11:38:29;11.70;;;2.58;;
45848;SDS011;31567;54.600;9.842;2023-08-07T11:42:20;15.02;;;3.80;;
45848;SDS011;31567;54.600;9.842;2023-08-07T11:46:01;8.90;;;2.92;;
45848;SDS011;31567;54.600;9.842;2023-08-07T11:49:42;11.10;;;2.72;;
45848;SDS011;31567;54.600;9.842;2023-08-07T11:53:23;12.07;;;2.13;;
45848;SDS011;31567;54.600;9.842;2023-08-07T11:57:14;9.10;;;2.33;;
45848;SDS011;31567;54.600;9.842;2023-08-07T12:00:54;9.13;;;2.53;;
45848;SDS011;31567;54.600;9.842;2023-08-07T12:04:35;7.70;;;1.98;;
45848;SDS011;31567;54.600;9.842;2023-08-07T12:08:14;10.77;;;2.97;;
45848;SDS011;31567;54.600;9.842;2023-08-07T12:11:57;8.82;;;2.17;;
45848;SDS011;31567;54.600;9.842;2023-08-07T12:15:37;13.20;;;2.35;;
45848;SDS011;31567;54.600;9.842;2023-08-07T12:19:17;11.48;;;2.40;;
45848;SDS011;31567;54.600;9.842;2023-08-07T12:22:58;8.98;;;2.50;;
45848;SDS011;31567;54.600;9.842;2023-08-07T12:26:37;10.02;;;2.95;;
45848;SDS011;31567;54.600;9.842;2023-08-07T12:30:17;6.78;;;1.70;;
45848;SDS011;31567;54.600;9.842;2023-08-07T12:33:56;8.57;;;2.00;;
45848;SDS011;31567;54.600;9.842;2023-08-07T12:37:36;17.50;;;3.08;;
45848;SDS011;31567;54.600;9.842;2023-08-07T12:41:15;11.05;;;2.55;;
45848;SDS011;31567;54.600;9.842;2023-08-07T12:44:55;10.50;;;2.17;;
45848;SDS011;31567;54.600;9.842;2023-08-07T12:48:34;8.93;;;2.13;;
45848;SDS011;31567;54.600;9.842;2023-08-07T12:52:14;12.00;;;2.50;;
45848;SDS011;31567;54.600;9.842;2023-08-07T12:55:53;11.15;;;2.20;;
45848;SDS011;31567;54.600;9.842;2023-08-07T12:59:33;10.43;;;1.92;;
45848;SDS011;31567;54.600;9.842;2023-08-07T13:03:13;10.68;;;2.28;;
45848;SDS011;31567;54.600;9.842;2023-08-07T13:06:52;11.10;;;2.63;;
45848;SDS011;31567;54.600;9.842;2023-08-07T13:10:32;18.10;;;2.83;;
45848;SDS011;31567;54.600;9.842;2023-08-07T13:14:11;11.25;;;2.90;;
45848;SDS011;31567;54.600;9.842;2023-08-07T13:17:51;14.27;;;3.05;;
45848;SDS011;31567;54.600;9.842;2023-08-07T13:21:30;13.35;;;2.55;;
45848;SDS011;31567;54.600;9.842;2023-08-07T13:25:10;14.30;;;2.92;;
45848;SDS011;31567;54.600;9.842;2023-08-07T13:28:51;13.00;;;2.92;;
45848;SDS011;31567;54.600;9.842;2023-08-07T13:32:31;7.38;;;2.20;;
45848;SDS011;31567;54.600;9.842;2023-08-07T13:36:13;10.30;;;2.95;;
45848;SDS011;31567;54.600;9.842;2023-08-07T13:39:53;13.00;;;2.70;;
45848;SDS011;31567;54.600;9.842;2023-08-07T13:43:33;9.23;;;2.60;;
45848;SDS011;31567;54.600;9.842;2023-08-07T13:47:12;7.93;;;2.58;;
45848;SDS011;31567;54.600;9.842;2023-08-07T13:50:53;10.07;;;2.20;;
45848;SDS011;31567;54.600;9.842;2023-08-07T13:54:33;11.15;;;2.42;;
45848;SDS011;31567;54.600;9.842;2023-08-07T13:58:12;11.38;;;2.55;;
45848;SDS011;31567;54.600;9.842;2023-08-07T14:01:55;14.48;;;2.78;;
45848;SDS011;31567;54.600;9.842;2023-08-07T14:05:35;7.32;;;2.20;;
45848;SDS011;31567;54.600;9.842;2023-08-07T14:09:14;7.88;;;2.05;;
45848;SDS011;31567;54.600;9.842;2023-08-07T14:12:54;17.25;;;2.22;;
45848;SDS011;31567;54.600;9.842;2023-08-07T14:16:33;7.05;;;2.63;;
45848;SDS011;31567;54.600;9.842;2023-08-07T14:20:13;14.57;;;2.33;;
45848;SDS011;31567;54.600;9.842;2023-08-07T14:23:52;9.57;;;2.28;;
45848;SDS011;31567;54.600;9.842;2023-08-07T14:27:32;10.02;;;2.25;;
45848;SDS011;31567;54.600;9.842;2023-08-07T14:31:12;9.18;;;2.47;;
45848;SDS011;31567;54.600;9.842;2023-08-07T14:34:52;9.00;;;2.40;;
45848;SDS011;31567;54.600;9.842;2023-08-07T14:38:31;8.07;;;1.85;;
45848;SDS011;31567;54.600;9.842;2023-08-07T14:42:11;12.98;;;2.17;;
45848;SDS011;31567;54.600;9.842;2023-08-07T14:45:50;14.68;;;2.22;;
45848;SDS011;31567;54.600;9.842;2023-08-07T14:49:32;8.27;;;1.55;;
45848;SDS011;31567;54.600;9.842;2023-08-07T14:53:11;9.25;;;2.20;;
45848;SDS011;31567;54.600;9.842;2023-08-07T14:56:51;8.68;;;2.10;;
45848;SDS011;31567;54.600;9.842;2023-08-07T15:00:30;13.05;;;2.00;;
45848;SDS011;31567;54.600;9.842;2023-08-07T15:04:10;13.23;;;2.10;;
45848;SDS011;31567;54.600;9.842;2023-08-07T15:07:50;13.20;;;3.13;;
45848;SDS011;31567;54.600;9.842;2023-08-07T15:11:29;13.27;;;2.63;;
45848;SDS011;31567;54.600;9.842;2023-08-07T15:15:09;9.35;;;2.28;;
45848;SDS011;31567;54.600;9.842;2023-08-07T15:18:49;10.38;;;1.98;;
45848;SDS011;31567;54.600;9.842;2023-08-07T15:22:28;10.77;;;2.13;;
45848;SDS011;31567;54.600;9.842;2023-08-07T15:26:08;10.25;;;2.42;;
45848;SDS011;31567;54.600;9.842;2023-08-07T15:29:47;12.07;;;2.40;;
45848;SDS011;31567;54.600;9.842;2023-08-07T15:33:27;13.60;;;3.03;;
45848;SDS011;31567;54.600;9.842;2023-08-07T15:37:06;7.57;;;2.13;;
45848;SDS011;31567;54.600;9.842;2023-08-07T15:40:46;10.50;;;2.15;;
45848;SDS011;31567;54.600;9.842;2023-08-07T15:44:26;8.70;;;1.90;;
45848;SDS011;31567;54.600;9.842;2023-08-07T15:48:06;9.63;;;2.65;;
45848;SDS011;31567;54.600;9.842;2023-08-07T15:51:45;10.10;;;1.92;;
45848;SDS011;31567;54.600;9.842;2023-08-07T15:55:26;9.57;;;2.28;;
45848;SDS011;31567;54.600;9.842;2023-08-07T15:59:06;8.68;;;2.38;;
45848;SDS011;31567;54.600;9.842;2023-08-07T16:02:46;9.02;;;1.83;;
45848;SDS011;31567;54.600;9.842;2023-08-07T16:06:26;15.18;;;2.88;;
45848;SDS011;31567;54.600;9.842;2023-08-07T16:10:05;7.15;;;1.75;;
45848;SDS011;31567;54.600;9.842;2023-08-07T16:13:46;8.65;;;2.97;;
45848;SDS011;31567;54.600;9.842;2023-08-07T16:17:25;8.13;;;1.85;;
45848;SDS011;31567;54.600;9.842;2023-08-07T16:21:05;13.18;;;2.25;;
45848;SDS011;31567;54.600;9.842;2023-08-07T16:24:44;16.83;;;2.78;;
45848;SDS011;31567;54.600;9.842;2023-08-07T16:28:26;11.40;;;1.83;;
45848;SDS011;31567;54.600;9.842;2023-08-07T16:32:06;10.55;;;1.90;;
45848;SDS011;31567;54.600;9.842;2023-08-07T16:35:47;11.57;;;2.50;;
45848;SDS011;31567;54.600;9.842;2023-08-07T16:39:27;9.20;;;2.33;;
45848;SDS011;31567;54.600;9.842;2023-08-07T16:43:06;11.88;;;2.33;;
45848;SDS011;31567;54.600;9.842;2023-08-07T16:46:46;16.23;;;2.33;;
45848;SDS011;31567;54.600;9.842;2023-08-07T16:50:27;13.25;;;3.17;;
45848;SDS011;31567;54.600;9.842;2023-08-07T16:54:07;18.63;;;2.22;;
45848;SDS011;31567;54.600;9.842;2023-08-07T16:57:46;11.30;;;2.45;;
45848;SDS011;31567;54.600;9.842;2023-08-07T17:01:26;11.55;;;3.05;;
45848;SDS011;31567;54.600;9.842;2023-08-07T17:05:05;16.33;;;2.60;;
45848;SDS011;31567;54.600;9.842;2023-08-07T17:08:45;10.48;;;2.65;;
45848;SDS011;31567;54.600;9.842;2023-08-07T17:12:28;13.27;;;2.30;;
45848;SDS011;31567;54.600;9.842;2023-08-07T17:16:07;11.73;;;2.50;;
45848;SDS011;31567;54.600;9.842;2023-08-07T17:19:47;12.00;;;2.80;;
45848;SDS011;31567;54.600;9.842;2023-08-07T17:23:26;10.32;;;2.65;;
45848;SDS011;31567;54.600;9.842;2023-08-07T17:27:06;13.18;;;3.10;;
45848;SDS011;31567;54.600;9.842;2023-08-07T17:30:45;11.02;;;2.22;;
45848;SDS011;31567;54.600;9.842;2023-08-07T17:34:25;15.23;;;2.80;;
45848;SDS011;31567;54.600;9.842;2023-08-07T17:38:05;13.35;;;2.72;;
45848;SDS011;31567;54.600;9.842;2023-08-07T17:41:44;13.43;;;2.80;;
45848;SDS011;31567;54.600;9.842;2023-08-07T17:45:26;12.82;;;2.97;;
45848;SDS011;31567;54.600;9.842;2023-08-07T17:49:06;15.45;;;3.13;;
45848;SDS011;31567;54.600;9.842;2023-08-07T17:52:45;11.57;;;2.33;;
45848;SDS011;31567;54.600;9.842;2023-08-07T17:56:25;13.65;;;2.53;;
45848;SDS011;31567;54.600;9.842;2023-08-07T18:00:05;10.38;;;2.95;;
45848;SDS011;31567;54.600;9.842;2023-08-07T18:03:46;16.60;;;3.65;;
45848;SDS011;31567;54.600;9.842;2023-08-07T18:07:26;11.73;;;3.53;;
45848;SDS011;31567;54.600;9.842;2023-08-07T18:11:05;14.90;;;4.10;;
45848;SDS011;31567;54.600;9.842;2023-08-07T18:14:45;13.65;;;2.85;;
45848;SDS011;31567;54.600;9.842;2023-08-07T18:18:24;13.45;;;2.97;;
45848;SDS011;31567;54.600;9.842;2023-08-07T18:22:04;11.82;;;2.75;;
45848;SDS011;31567;54.600;9.842;2023-08-07T18:25:44;9.13;;;2.55;;
45848;SDS011;31567;54.600;9.842;2023-08-07T18:29:23;11.80;;;2.70;;
45848;SDS011;31567;54.600;9.842;2023-08-07T18:33:03;13.25;;;2.60;;
45848;SDS011;31567;54.600;9.842;2023-08-07T18:36:43;10.45;;;2.45;;
45848;SDS011;31567;54.600;9.842;2023-08-07T18:40:23;7.90;;;2.10;;
45848;SDS011;31567;54.600;9.842;2023-08-07T18:44:02;10.75;;;2.15;;
45848;SDS011;31567;54.600;9.842;2023-08-07T18:47:42;13.82;;;2.70;;
45848;SDS011;31567;54.600;9.842;2023-08-07T18:51:22;10.35;;;2.65;;
45848;SDS011;31567;54.600;9.842;2023-08-07T18:55:02;9.55;;;2.70;;
45848;SDS011;31567;54.600;9.842;2023-08-07T18:58:42;13.43;;;3.00;;
45848;SDS011;31567;54.600;9.842;2023-08-07T19:02:21;10.90;;;2.85;;
45848;SDS011;31567;54.600;9.842;2023-08-07T19:06:01;10.55;;;2.83;;
45848;SDS011;31567;54.600;9.842;2023-08-07T19:09:44;14.43;;;2.83;;
45848;SDS011;31567;54.600;9.842;2023-08-07T19:13:23;15.38;;;2.60;;
45848;SDS011;31567;54.600;9.842;2023-08-07T19:17:03;13.65;;;2.97;;
45848;SDS011;31567;54.600;9.842;2023-08-07T19:20:43;10.98;;;3.03;;
45848;SDS011;31567;54.600;9.842;2023-08-07T19:24:22;12.35;;;3.50;;
45848;SDS011;31567;54.600;9.842;2023-08-07T19:28:02;12.00;;;3.20;;
45848;SDS011;31567;54.600;9.842;2023-08-07T19:31:42;10.20;;;3.33;;
45848;SDS011;31567;54.600;9.842;2023-08-07T19:35:22;13.90;;;3.17;;
45848;SDS011;31567;54.600;9.842;2023-08-07T19:39:01;13.25;;;3.40;;
45848;SDS011;31567;54.600;9.842;2023-08-07T19:42:42;15.63;;;3.30;;
45848;SDS011;31567;54.600;9.842;2023-08-07T19:46:22;9.38;;;3.15;;
45848;SDS011;31567;54.600;9.842;2023-08-07T19:50:02;11.60;;;3.30;;
45848;SDS011;31567;54.600;9.842;2023-08-07T19:53:42;18.48;;;3.75;;
45848;SDS011;31567;54.600;9.842;2023-08-07T19:57:22;12.07;;;3.78;;
45848;SDS011;31567;54.600;9.842;2023-08-07T20:01:02;15.25;;;2.83;;
45848;SDS011;31567;54.600;9.842;2023-08-07T20:04:42;15.82;;;3.42;;
45848;SDS011;31567;54.600;9.842;2023-08-07T20:08:21;13.57;;;3.38;;
45848;SDS011;31567;54.600;9.842;2023-08-07T20:12:01;9.93;;;3.20;;
45848;SDS011;31567;54.600;9.842;2023-08-07T20:15:41;16.17;;;3.42;;
45848;SDS011;31567;54.600;9.842;2023-08-07T20:19:20;18.63;;;3.67;;
45848;SDS011;31567;54.600;9.842;2023-08-07T20:23:01;14.15;;;3.05;;
45848;SDS011;31567;54.600;9.842;2023-08-07T20:26:41;16.88;;;4.30;;
45848;SDS011;31567;54.600;9.842;2023-08-07T20:30:21;15.15;;;2.95;;
45848;SDS011;31567;54.600;9.842;2023-08-07T20:34:00;10.13;;;3.08;;
45848;SDS011;31567;54.600;9.842;2023-08-07T20:37:40;11.85;;;2.70;;
45848;SDS011;31567;54.600;9.842;2023-08-07T20:41:19;17.00;;;3.60;;
45848;SDS011;31567;54.600;9.842;2023-08-07T20:44:59;12.80;;;3.40;;
45848;SDS011;31567;54.600;9.842;2023-08-07T20:48:39;11.27;;;2.50;;
45848;SDS011;31567;54.600;9.842;2023-08-07T20:52:19;10.90;;;3.17;;
45848;SDS011;31567;54.600;9.842;2023-08-07T20:55:58;18.80;;;4.07;;
45848;SDS011;31567;54.600;9.842;2023-08-07T20:59:38;13.30;;;2.90;;
45848;SDS011;31567;54.600;9.842;2023-08-07T21:03:17;23.52;;;4.18;;
45848;SDS011;31567;54.600;9.842;2023-08-07T21:06:57;10.30;;;2.60;;
45848;SDS011;31567;54.600;9.842;2023-08-07T21:10:36;15.82;;;3.30;;
45848;SDS011;31567;54.600;9.842;2023-08-07T21:14:16;11.95;;;3.20;;
45848;SDS011;31567;54.600;9.842;2023-08-07T21:17:55;12.68;;;3.00;;
45848;SDS011;31567;54.600;9.842;2023-08-07T21:21:36;16.20;;;2.75;;
45848;SDS011;31567;54.600;9.842;2023-08-07T21:25:15;17.83;;;3.45;;
45848;SDS011;31567;54.600;9.842;2023-08-07T21:28:55;11.70;;;2.88;;
45848;SDS011;31567;54.600;9.842;2023-08-07T21:32:35;11.60;;;2.50;;
45848;SDS011;31567;54.600;9.842;2023-08-07T21:36:14;8.95;;;3.13;;
45848;SDS011;31567;54.600;9.842;2023-08-07T21:39:54;15.02;;;2.80;;
45848;SDS011;31567;54.600;9.842;2023-08-07T21:43:33;13.85;;;3.67;;
45848;SDS011;31567;54.600;9.842;2023-08-07T21:47:13;15.68;;;3.22;;
45848;SDS011;31567;54.600;9.842;2023-08-07T21:50:52;14.30;;;3.15;;
45848;SDS011;31567;54.600;9.842;2023-08-07T21:54:32;17.95;;;4.05;;
45848;SDS011;31567;54.600;9.842;2023-08-07T21:58:12;9.50;;;2.58;;
45848;SDS011;31567;54.600;9.842;2023-08-07T22:01:51;7.53;;;2.50;;